Lilienfeld, Austria
Current Conditions -  °F | °C
As of 2:50 PM on Friday 28 Nov 2014 (Local Time) from LOXT Reporting Station
Drizzle Drizzle  
Wind Chill: 29°   Ceiling: 600
Heat Index: 36°   Visibility: 3mi
Dew Point: 34°   Wind: 9mph
Humidity: 93%   Direction: 80°E
Pressure: 30.03"   Gusts: NA
Location:  48.01°N, 15.6°E
Report Text: LOXT 281250Z 08008KT 5000 -DZ BR SCT005ST OVC006ST 02/01 Q1017 TEMPO BKN005 RMK OVC
Loading
Personal Weather Stations






























Interactive Weather Map New forecast layout! Learn more

10-Day Weather Forecast

Advertisements
Track Severe Weather on mobile